Noah Peralta

Scout - San Martín SJ
11 Mär 2027
Donnerstag
Verarbeitung

Persönlichkeit

Anpassungsfähigkeit (3) Ehrgeiz (6) Kontroverse (6) Loyalität (1) Druck (1) Professionalität (15) Fairness (1) Temperament (8)

Profil

Trainerstil Demokratisch
Lizenz Kontinentale Pro
Entschlossenheit 6
Menschenführung 12
Motivation 12
Disziplin 6
Arbeitszufriedenheit
86%
Ermüdung
0%
Rolle Scout
Gehalt 70.0K p/W
Vertrag 14.03.2027

Leistung

Verhalten Gut
Trainingseffektivität
31%
Spielerentwicklung
30%
Verletzungsprävention
35%
Taktische Umsetzung
60%

Letzte Ereignisse

Vertragsverhandlung begonnen jetzt
Nahm an einer Scouting-Besprechung teil jetzt
Nahm an einer Scouting-Besprechung teil jetzt
Nahm an einer Scouting-Besprechung teil jetzt
Nahm an einer Scouting-Besprechung teil jetzt
Nahm an einer Scouting-Besprechung teil jetzt
Vertragsverhandlung begonnen 7T her
Vertragsverhandlung begonnen 7T her

Aktuell beobachtet

142
Spieler Verein Status Fähigkeit Vertrauen Beobachtet Zuletzt beobachtet Letzte Stimme
Romano Schmid Frosinone Aktiv 156 / 134 40% 1 29.11.2026 -
George Earthy Reading Aktiv 116 / 129 40% 1 29.11.2026 -
Williams Manyama SuperSport United Aktiv 110 / 123 40% 2 28.11.2026 -
Andrey Domotsev Mashuk Aktiv 78 / 86 40% 1 28.11.2026 -
Aljoša Matko Ujpest Aktiv 118 / 108 40% 1 27.11.2026 -
Osciel De La Cruz Chiapas Aktiv 107 / 87 40% 3 26.11.2026 -
Evidence Dala Black Aces Aktiv 85 / 116 40% 1 26.11.2026 -
Nicolás Zalazar Aldosivi Aktiv 117 / 119 40% 2 24.11.2026 -
Sinoxolo Kwayiba Chippa United Aktiv 100 / 117 40% 1 24.11.2026 -
Jordan Lotomba Bloemfontein Celtic Aktiv 130 / 119 40% 1 23.11.2026 Mehr Infos nötig
Ulises Sánchez Gimnasia y Esgrima Aktiv 130 / 128 40% 1 22.11.2026 Mehr Infos nötig
Bongani Modiba Black Aces Aktiv 114 / 120 40% 1 22.11.2026 -
Marek Sestak FK Senica Aktiv 94 / 122 40% 1 22.11.2026 -
Ousseynou Seck Randers Aktiv 117 / 123 40% 1 22.11.2026 Mehr Infos nötig
Keagan Mothiba SuperSport United Aktiv 120 / 124 40% 2 20.11.2026 -
Ilir Krasniqi Polissia Aktiv 108 / 119 40% 1 20.11.2026 -
Nathan-Dylan Saliba Villarreal Aktiv 116 / 136 40% 1 20.11.2026 -
Franco Romero HNK Gorica Aktiv 98 / 107 40% 1 20.11.2026 -
Marcos Cuenca Zaragoza Aktiv 119 / 106 40% 1 17.11.2026 -
Jens Petter Hauge Bodo/Glimt Abgelehnt 123 / 142 40% 3 16.11.2026 Ablehnen
Arkaitz Mariezkurrena Real Sociedad Aktiv 133 / 118 40% 3 15.11.2026 -
Tomás Porra Barracas Central Aktiv 124 / 121 40% 1 15.11.2026 -
Santiago Sandoval Guadalajara Aktiv 80 / 96 40% 1 15.11.2026 -
Fletcher Holman Swindon Town Aktiv 105 / 96 40% 1 14.11.2026 Mehr Infos nötig
Juan Francisco Rossel Universidad Catolica Aktiv 83 / 92 40% 1 14.11.2026 -
Delvin Alfonzo Deportivo Tachira Aktiv 121 / 114 40% 3 11.11.2026 -
Petar Stanić Ludogorets Aktiv 136 / 138 40% 1 10.11.2026 -
Paxten Aaronson Colorado Rapids Aktiv 127 / 130 40% 1 10.11.2026 -
Alex Vigo Independiente Rivadavia Aktiv 124 / 117 40% 1 08.11.2026 -
Santiago Homenchenko Queretaro Aktiv 115 / 114 40% 3 07.11.2026 -
Matías Galarza Talleres Aktiv 121 / 130 40% 1 07.11.2026 -
Nikita Iosifov Viktoria Plzen Aktiv 110 / 113 40% 1 06.11.2026 -
Cristián Blanco Universitatea Craiova Aktiv 96 / 112 40% 1 05.11.2026 -
Hernán de la Fuente Instituto Aktiv 108 / 125 40% 1 03.11.2026 -
Juan Manuel Sanabria Real Salt Lake Aktiv 120 / 115 40% 2 01.11.2026 -
Sergio Reguilón Inter Miami CF Aktiv 155 / 128 40% 1 01.11.2026 -
Enzo Avaro Odd Aktiv 122 / 108 40% 1 30.10.2026 -
Nahuel Furtado Wanderers Aktiv 139 / 123 40% 4 29.10.2026 -
Mario García Racing Santander Aktiv 120 / 123 40% 1 29.10.2026 -
Aldahir Pérez Tijuana Aktiv 112 / 105 40% 1 29.10.2026 -
Jonás Luna Santa Clara Aktiv 102 / 113 40% 2 27.10.2026 Mehr Infos nötig
Jesús Duarte Deportivo Tachira Aktiv 73 / 90 40% 1 27.10.2026 -
Adolfo Muñoz Ruch Aktiv 107 / 122 40% 1 25.10.2026 -
Everton Bala Levski Aktiv 137 / 116 40% 1 25.10.2026 -
Joaquín Pereyra Minnesota United FC Aktiv 117 / 123 40% 1 24.10.2026 -
Lucas Arce CFR Cluj Aktiv 131 / 124 40% 1 23.10.2026 Mehr Infos nötig
Ramiro Ruiz Rodríguez Atlético Tucumán Aktiv 125 / 119 40% 1 22.10.2026 -
Tshepang Moremi Orlando Pirates Aktiv 123 / 104 40% 1 22.10.2026 -
Mandla Erasmus SuperSport United Aktiv 112 / 127 40% 1 20.10.2026 -
Santiago Rodríguez Columbus Crew Aktiv 112 / 125 40% 1 19.10.2026 -
Ariel Schuartzman Torpedo Kutaisi Aktiv 117 / 111 40% 1 19.10.2026 -
David Brekalo Orlando City Aktiv 128 / 124 40% 1 17.10.2026 -
Gonzalo Mottes Chacarita Juniors Aktiv 114 / 115 40% 1 17.10.2026 -
Leandro Lozano Boca Juniors Aktiv 127 / 124 40% 1 15.10.2026 -
Ramahlwe Vilakazi Free State Stars Aktiv 112 / 118 40% 1 15.10.2026 -
José Paradela Cruz Azul Aktiv 120 / 132 40% 2 13.10.2026 -
Oswin Appollis Orlando Pirates Aktiv 131 / 123 40% 1 11.10.2026 -
Kai Wagner Philadelphia Union Aktiv 121 / 116 40% 1 09.10.2026 -
Luka Kurtovic NK Domzale Aktiv 136 / 123 40% 1 08.10.2026 -
Matías Fernández Independiente Rivadavia Aktiv 122 / 117 40% 1 08.10.2026 -
Facundo Mura Inter Miami CF Aktiv 133 / 124 40% 2 07.10.2026 -
Nectar Triantis Minnesota United FC Aktiv 112 / 137 40% 1 07.10.2026 -
DeJuan Jones San Jose Earthquakes Aktiv 116 / 120 40% 1 06.10.2026 Mehr Infos nötig
Ho-yeon Jung Minnesota United FC Aktiv 138 / 128 40% 1 06.10.2026 -
Alexander Díaz Deportivo Riestra Aktiv 110 / 122 40% 2 05.10.2026 -
Matheus Alves CSKA Moscow Aktiv 123 / 130 40% 1 05.10.2026 -
Jean Galindo Imotski Aktiv 98 / 96 40% 1 05.10.2026 -
Cristhián Rivas Estudiantes de Merida Aktiv 115 / 117 40% 1 04.10.2026 -
Emir Karić Sporting Kansas City Aktiv 125 / 128 40% 2 03.10.2026 -
Maximiliano Ribero Central Norte Aktiv 102 / 107 40% 1 03.10.2026 -
Yuber Quiñónes Deportivo Pereira Aktiv 128 / 115 40% 2 01.10.2026 -
David Da Costa Portland Timbers Aktiv 117 / 136 40% 2 01.10.2026 -
Bryan Soto Audax Italiano Aktiv 93 / 99 40% 1 30.09.2026 -
Pavel Bucha FC Cincinnati Aktiv 146 / 128 40% 1 29.09.2026 -
Iván Rozas Antofagasta Aktiv 95 / 99 40% 1 29.09.2026 -
Lautaro Di Lollo Boca Juniors Aktiv 133 / 127 40% 1 28.09.2026 -
Sebastián Pereira Union Espanola Aktiv 120 / 112 40% 1 28.09.2026 -
Néider Barona Altach Aktiv 102 / 114 40% 1 28.09.2026 -
Francisco González Metilli Belgrano Aktiv 125 / 119 40% 2 26.09.2026 -
Alejo Antilef Debrecen Aktiv 127 / 113 40% 1 26.09.2026 -
Lukas Engel Real Salt Lake Aktiv 116 / 132 40% 1 26.09.2026 -
Yerko Leiva Union La Calera Aktiv 104 / 110 40% 2 24.09.2026 -
Duncan McGuire Houston Dynamo Aktiv 128 / 124 40% 1 24.09.2026 -
Eduardo Delmás Olimpia Aktiv 82 / 95 40% 1 23.09.2026 -
Ezequiel Cañete Huachipato Aktiv 119 / 112 40% 1 23.09.2026 -
Pablo Aránguiz Union Espanola Aktiv 114 / 106 40% 2 19.09.2026 -
Ignacio Lago Colón Aktiv 130 / 113 40% 1 19.09.2026 -
Emiliano Saliadarre Miramar Misiones Aktiv 121 / 117 40% 1 18.09.2026 -
Bruno Larregui Juventud Aktiv 125 / 120 40% 1 18.09.2026 -
René López Morelia Aktiv 125 / 100 40% 1 18.09.2026 -
Adilson Córdoba Aktiv 102 / 110 40% 1 16.09.2026 -
Mathías Tomás Puebla Aktiv 124 / 108 40% 1 16.09.2026 -
Alex Woiski Deportivo Tachira Aktiv 79 / 96 40% 1 16.09.2026 -
Lucciano Reinoso Caracas Aktiv 87 / 97 40% 1 16.09.2026 -
Inti López River Plate Aktiv 102 / 92 40% 1 13.09.2026 -
Alexei Dominguez Pachuca Aktiv 114 / 120 40% 1 13.09.2026 -
Ronaldo Pájaro Deportivo Cali Aktiv 130 / 121 40% 1 13.09.2026 -
Samuel Velásquez Atletico Nacional Aktiv 104 / 125 40% 1 13.09.2026 -
Lucas Agazzi Defensor Sporting Aktiv 125 / 132 40% 3 12.09.2026 -
Alan García Wanderers Aktiv 103 / 118 40% 1 12.09.2026 -
Mateo Garavito Deportivo Pasto Aktiv 117 / 122 40% 1 12.09.2026 -
Lucas Carrizo Plaza Colonia Aktiv 110 / 111 40% 1 12.09.2026 -
Alejo Cruz Juventud Aktiv 111 / 112 40% 1 10.09.2026 -
Manuel Ospina Cortulua Aktiv 134 / 129 40% 1 07.09.2026 -
Bruno Hernández Cerro Largo Aktiv 79 / 98 40% 2 04.09.2026 -
Santiago Toloza O'Higgins Aktiv 124 / 120 40% 2 04.09.2026 -
Jhojan Julio Queretaro Aktiv 125 / 112 40% 1 04.09.2026 -
Yojan Garcés America de Cali Aktiv 120 / 113 40% 1 04.09.2026 -
Diego Chávez Deportivo Pasto Aktiv 116 / 112 40% 2 03.09.2026 -
Ian Garguez Palestino Aktiv 99 / 112 40% 1 03.09.2026 -
Rômulo Tigres Aktiv 105 / 118 40% 2 01.09.2026 -
Agustín Amado Boston River Aktiv 123 / 115 40% 1 01.09.2026 -
Iván Tona Tijuana Aktiv 121 / 113 40% 1 01.09.2026 -
José Caldera Deportivo Cali Aktiv 129 / 113 40% 1 01.09.2026 -
Emiliano Álvarez Progreso Aktiv 108 / 115 40% 2 30.08.2026 -
Diego Rossi Monterrey Aktiv 116 / 136 40% 1 29.08.2026 -
Christian Ebere Cruz Azul Aktiv 119 / 126 40% 1 29.08.2026 -
Diego Osio Deportivo La Guaira Aktiv 116 / 109 40% 1 28.08.2026 -
Jorge Sánchez Atlas Aktiv 144 / 125 40% 1 28.08.2026 -
Lucas Rodríguez Albion Aktiv 105 / 116 40% 1 28.08.2026 -
Jesús Yendis Caracas Aktiv 105 / 101 40% 1 28.08.2026 -
Enzo Giménez Queretaro Aktiv 126 / 131 40% 1 25.08.2026 -
Alan Cervantes Club America Aktiv 124 / 132 40% 3 23.08.2026 -
James Cardona La Equidad Aktiv 147 / 140 40% 1 20.08.2026 -
Iker Benito Queretaro Aktiv 137 / 124 40% 1 19.08.2026 -
Adalberto Peñaranda Deportivo Tachira Aktiv 105 / 110 40% 1 16.08.2026 -
Ihojan Pérez Cerro Largo Aktiv 101 / 95 40% 1 16.08.2026 -
Jáder Quiñónes Once Caldas Aktiv 109 / 112 40% 1 14.08.2026 -
Leandro Suhr Boston River Aktiv 119 / 124 40% 1 14.08.2026 -
Luciano Cosentino Wanderers Aktiv 111 / 122 40% 1 13.08.2026 -
Éwil Murillo Santa Fe Aktiv 109 / 120 40% 1 13.08.2026 -
Jorge Murrugarra Universitario Aktiv 126 / 108 40% 1 12.08.2026 -
Mauricio Isais Pachuca Aktiv 109 / 118 40% 1 12.08.2026 -
Mateo Zuleta Once Caldas Aktiv 117 / 114 40% 1 11.08.2026 -
Tomás Escalante Plaza Colonia Aktiv 121 / 117 40% 1 09.08.2026 -
Ignacio Aliseda Cerro Porteno Aktiv 118 / 128 40% 1 08.08.2026 -
Juan José Mera Deportes Tolima Aktiv 109 / 117 40% 1 05.08.2026 -
Pablo Bennevendo Pumas UNAM Aktiv 130 / 125 40% 1 05.08.2026 -
Carlos Adrián Sánchez Pachuca Aktiv 122 / 113 40% 1 04.08.2026 -
Mateo Puerta Deportivo Cali Aktiv 107 / 108 40% 1 04.08.2026 -
Iván Rojas Aguilas Doradas Aktiv 126 / 111 40% 1 02.08.2026 -
Nicolás Ramírez Universidad de Chile Aktiv 115 / 110 40% 1 02.08.2026 -